sensor_id;sensor_type;location;lat;lon;timestamp;P1;P4;P2;P0;N10;N4;N25;N1;N05;TS
82310;SPS30;72015;51.330;12.316;2024-01-07T00:00:51;49.66;;37.97;;;;;;;
82310;SPS30;72015;51.330;12.316;2024-01-07T00:05:15;35.57;;29.21;;;;;;;
82310;SPS30;72015;51.330;12.316;2024-01-07T00:09:39;35.57;;29.21;;;;;;;
82310;SPS30;72015;51.330;12.316;2024-01-07T00:14:03;44.15;;34.25;;;;;;;
82310;SPS30;72015;51.330;12.316;2024-01-07T00:18:27;44.15;;34.25;;;;;;;
82310;SPS30;72015;51.330;12.316;2024-01-07T00:22:51;25.56;;23.67;;;;;;;
82310;SPS30;72015;51.330;12.316;2024-01-07T00:27:15;25.56;;23.67;;;;;;;
82310;SPS30;72015;51.330;12.316;2024-01-07T00:31:39;25.56;;23.67;;;;;;;
82310;SPS30;72015;51.330;12.316;2024-01-07T00:36:03;32.49;;27.42;;;;;;;
82310;SPS30;72015;51.330;12.316;2024-01-07T00:40:27;32.49;;27.42;;;;;;;
82310;SPS30;72015;51.330;12.316;2024-01-07T00:44:51;23.59;;21.43;;;;;;;
82310;SPS30;72015;51.330;12.316;2024-01-07T00:49:15;23.59;;21.43;;;;;;;
82310;SPS30;72015;51.330;12.316;2024-01-07T00:53:39;19.57;;18.57;;;;;;;
82310;SPS30;72015;51.330;12.316;2024-01-07T00:58:03;19.57;;18.57;;;;;;;
82310;SPS30;72015;51.330;12.316;2024-01-07T01:02:27;24.13;;20.42;;;;;;;
82310;SPS30;72015;51.330;12.316;2024-01-07T01:06:51;24.13;;20.42;;;;;;;
82310;SPS30;72015;51.330;12.316;2024-01-07T01:11:15;24.13;;20.42;;;;;;;
82310;SPS30;72015;51.330;12.316;2024-01-07T01:15:39;30.29;;23.45;;;;;;;
82310;SPS30;72015;51.330;12.316;2024-01-07T01:20:03;30.29;;23.45;;;;;;;
82310;SPS30;72015;51.330;12.316;2024-01-07T01:24:27;18.85;;17.83;;;;;;;
82310;SPS30;72015;51.330;12.316;2024-01-07T01:28:51;18.85;;17.83;;;;;;;
82310;SPS30;72015;51.330;12.316;2024-01-07T01:33:15;20.65;;18.49;;;;;;;
82310;SPS30;72015;51.330;12.316;2024-01-07T01:37:39;20.65;;18.49;;;;;;;
82310;SPS30;72015;51.330;12.316;2024-01-07T01:42:03;20.65;;18.49;;;;;;;
82310;SPS30;72015;51.330;12.316;2024-01-07T01:46:28;20.23;;18.61;;;;;;;
82310;SPS30;72015;51.330;12.316;2024-01-07T01:50:51;20.23;;18.61;;;;;;;
82310;SPS30;72015;51.330;12.316;2024-01-07T01:55:15;17.66;;16.55;;;;;;;
82310;SPS30;72015;51.330;12.316;2024-01-07T01:59:39;17.66;;16.55;;;;;;;
82310;SPS30;72015;51.330;12.316;2024-01-07T02:04:03;18.96;;17.57;;;;;;;
82310;SPS30;72015;51.330;12.316;2024-01-07T02:08:27;18.96;;17.57;;;;;;;
82310;SPS30;72015;51.330;12.316;2024-01-07T02:12:52;19.56;;17.65;;;;;;;
82310;SPS30;72015;51.330;12.316;2024-01-07T02:17:15;19.56;;17.65;;;;;;;
82310;SPS30;72015;51.330;12.316;2024-01-07T02:21:39;19.56;;17.65;;;;;;;
82310;SPS30;72015;51.330;12.316;2024-01-07T02:26:03;17.77;;17.29;;;;;;;
82310;SPS30;72015;51.330;12.316;2024-01-07T02:30:27;17.77;;17.29;;;;;;;
82310;SPS30;72015;51.330;12.316;2024-01-07T02:34:51;14.72;;13.75;;;;;;;
82310;SPS30;72015;51.330;12.316;2024-01-07T02:39:15;14.72;;13.75;;;;;;;
82310;SPS30;72015;51.330;12.316;2024-01-07T02:43:39;16.35;;14.82;;;;;;;
82310;SPS30;72015;51.330;12.316;2024-01-07T02:48:03;16.35;;14.82;;;;;;;
82310;SPS30;72015;51.330;12.316;2024-01-07T02:52:27;14.66;;14.06;;;;;;;
82310;SPS30;72015;51.330;12.316;2024-01-07T02:56:51;14.66;;14.06;;;;;;;
82310;SPS30;72015;51.330;12.316;2024-01-07T03:01:15;14.66;;14.06;;;;;;;
82310;SPS30;72015;51.330;12.316;2024-01-07T03:05:39;16.13;;15.29;;;;;;;
82310;SPS30;72015;51.330;12.316;2024-01-07T03:10:03;16.13;;15.29;;;;;;;
82310;SPS30;72015;51.330;12.316;2024-01-07T03:14:27;20.38;;17.78;;;;;;;
82310;SPS30;72015;51.330;12.316;2024-01-07T03:18:51;20.38;;17.78;;;;;;;
82310;SPS30;72015;51.330;12.316;2024-01-07T03:23:15;20.24;;16.93;;;;;;;
82310;SPS30;72015;51.330;12.316;2024-01-07T03:27:39;20.24;;16.93;;;;;;;
82310;SPS30;72015;51.330;12.316;2024-01-07T03:32:03;20.24;;16.93;;;;;;;
82310;SPS30;72015;51.330;12.316;2024-01-07T03:36:27;13.08;;12.34;;;;;;;
82310;SPS30;72015;51.330;12.316;2024-01-07T03:40:51;13.08;;12.34;;;;;;;
82310;SPS30;72015;51.330;12.316;2024-01-07T03:45:15;12.79;;12.24;;;;;;;
82310;SPS30;72015;51.330;12.316;2024-01-07T03:49:39;12.79;;12.24;;;;;;;
82310;SPS30;72015;51.330;12.316;2024-01-07T03:54:03;12.78;;11.67;;;;;;;
82310;SPS30;72015;51.330;12.316;2024-01-07T03:58:27;12.78;;11.67;;;;;;;
82310;SPS30;72015;51.330;12.316;2024-01-07T04:02:51;7.63;;7.63;;;;;;;
82310;SPS30;72015;51.330;12.316;2024-01-07T04:07:15;7.63;;7.63;;;;;;;
82310;SPS30;72015;51.330;12.316;2024-01-07T04:11:42;7.63;;7.63;;;;;;;
82310;SPS30;72015;51.330;12.316;2024-01-07T04:16:03;13.57;;11.46;;;;;;;
82310;SPS30;72015;51.330;12.316;2024-01-07T04:20:27;13.57;;11.46;;;;;;;
82310;SPS30;72015;51.330;12.316;2024-01-07T04:24:51;13.01;;11.64;;;;;;;
82310;SPS30;72015;51.330;12.316;2024-01-07T04:29:15;13.01;;11.64;;;;;;;
82310;SPS30;72015;51.330;12.316;2024-01-07T04:33:39;10.17;;9.28;;;;;;;
82310;SPS30;72015;51.330;12.316;2024-01-07T04:38:03;10.17;;9.28;;;;;;;
82310;SPS30;72015;51.330;12.316;2024-01-07T04:42:27;12.64;;10.67;;;;;;;
82310;SPS30;72015;51.330;12.316;2024-01-07T04:46:51;12.64;;10.67;;;;;;;
82310;SPS30;72015;51.330;12.316;2024-01-07T04:51:15;12.64;;10.67;;;;;;;
82310;SPS30;72015;51.330;12.316;2024-01-07T04:55:39;8.66;;8.35;;;;;;;
82310;SPS30;72015;51.330;12.316;2024-01-07T05:00:04;8.66;;8.35;;;;;;;
82310;SPS30;72015;51.330;12.316;2024-01-07T05:04:27;9.02;;8.45;;;;;;;
82310;SPS30;72015;51.330;12.316;2024-01-07T05:08:51;9.02;;8.45;;;;;;;
82310;SPS30;72015;51.330;12.316;2024-01-07T05:13:15;8.86;;7.92;;;;;;;
82310;SPS30;72015;51.330;12.316;2024-01-07T05:17:39;8.86;;7.92;;;;;;;
82310;SPS30;72015;51.330;12.316;2024-01-07T05:22:03;8.86;;7.92;;;;;;;
82310;SPS30;72015;51.330;12.316;2024-01-07T05:26:27;6.80;;6.80;;;;;;;
82310;SPS30;72015;51.330;12.316;2024-01-07T05:30:51;6.80;;6.80;;;;;;;
82310;SPS30;72015;51.330;12.316;2024-01-07T05:35:15;7.74;;7.50;;;;;;;
82310;SPS30;72015;51.330;12.316;2024-01-07T05:39:39;7.74;;7.50;;;;;;;
82310;SPS30;72015;51.330;12.316;2024-01-07T05:44:03;7.95;;7.69;;;;;;;
82310;SPS30;72015;51.330;12.316;2024-01-07T05:48:27;7.95;;7.69;;;;;;;
82310;SPS30;72015;51.330;12.316;2024-01-07T05:52:51;8.33;;7.66;;;;;;;
82310;SPS30;72015;51.330;12.316;2024-01-07T05:57:15;8.33;;7.66;;;;;;;
82310;SPS30;72015;51.330;12.316;2024-01-07T06:01:39;8.33;;7.66;;;;;;;
82310;SPS30;72015;51.330;12.316;2024-01-07T06:06:04;6.19;;5.97;;;;;;;
82310;SPS30;72015;51.330;12.316;2024-01-07T06:10:27;6.19;;5.97;;;;;;;
82310;SPS30;72015;51.330;12.316;2024-01-07T06:14:51;6.26;;5.94;;;;;;;
82310;SPS30;72015;51.330;12.316;2024-01-07T06:19:16;6.26;;5.94;;;;;;;
82310;SPS30;72015;51.330;12.316;2024-01-07T06:23:39;6.71;;6.03;;;;;;;
82310;SPS30;72015;51.330;12.316;2024-01-07T06:28:04;6.71;;6.03;;;;;;;
82310;SPS30;72015;51.330;12.316;2024-01-07T06:32:27;5.24;;5.17;;;;;;;
82310;SPS30;72015;51.330;12.316;2024-01-07T06:36:51;5.24;;5.17;;;;;;;
82310;SPS30;72015;51.330;12.316;2024-01-07T06:41:15;5.24;;5.17;;;;;;;
82310;SPS30;72015;51.330;12.316;2024-01-07T06:45:39;8.91;;7.57;;;;;;;
82310;SPS30;72015;51.330;12.316;2024-01-07T06:50:04;8.91;;7.57;;;;;;;
82310;SPS30;72015;51.330;12.316;2024-01-07T06:54:27;7.53;;6.68;;;;;;;
82310;SPS30;72015;51.330;12.316;2024-01-07T06:58:51;7.53;;6.68;;;;;;;
82310;SPS30;72015;51.330;12.316;2024-01-07T07:03:15;5.50;;5.50;;;;;;;
82310;SPS30;72015;51.330;12.316;2024-01-07T07:07:39;5.50;;5.50;;;;;;;
82310;SPS30;72015;51.330;12.316;2024-01-07T07:12:04;5.50;;5.50;;;;;;;
82310;SPS30;72015;51.330;12.316;2024-01-07T07:16:27;4.92;;4.92;;;;;;;
82310;SPS30;72015;51.330;12.316;2024-01-07T07:20:51;4.92;;4.92;;;;;;;
82310;SPS30;72015;51.330;12.316;2024-01-07T07:25:15;5.41;;5.41;;;;;;;
82310;SPS30;72015;51.330;12.316;2024-01-07T07:29:39;5.41;;5.41;;;;;;;
82310;SPS30;72015;51.330;12.316;2024-01-07T07:34:05;6.68;;6.14;;;;;;;
82310;SPS30;72015;51.330;12.316;2024-01-07T07:38:27;6.68;;6.14;;;;;;;
82310;SPS30;72015;51.330;12.316;2024-01-07T07:42:51;6.46;;6.21;;;;;;;
82310;SPS30;72015;51.330;12.316;2024-01-07T07:47:15;6.46;;6.21;;;;;;;
82310;SPS30;72015;51.330;12.316;2024-01-07T07:51:39;6.46;;6.21;;;;;;;
82310;SPS30;72015;51.330;12.316;2024-01-07T07:56:04;6.89;;6.70;;;;;;;
82310;SPS30;72015;51.330;12.316;2024-01-07T08:00:27;6.89;;6.70;;;;;;;
82310;SPS30;72015;51.330;12.316;2024-01-07T08:04:51;5.45;;5.45;;;;;;;
82310;SPS30;72015;51.330;12.316;2024-01-07T08:09:15;5.45;;5.45;;;;;;;
82310;SPS30;72015;51.330;12.316;2024-01-07T08:13:40;10.83;;8.73;;;;;;;
82310;SPS30;72015;51.330;12.316;2024-01-07T08:18:04;10.83;;8.73;;;;;;;
82310;SPS30;72015;51.330;12.316;2024-01-07T08:22:27;5.73;;5.23;;;;;;;
82310;SPS30;72015;51.330;12.316;2024-01-07T08:26:51;5.73;;5.23;;;;;;;
82310;SPS30;72015;51.330;12.316;2024-01-07T08:31:15;5.73;;5.23;;;;;;;
82310;SPS30;72015;51.330;12.316;2024-01-07T08:35:39;6.01;;6.01;;;;;;;
82310;SPS30;72015;51.330;12.316;2024-01-07T08:40:04;6.01;;6.01;;;;;;;
82310;SPS30;72015;51.330;12.316;2024-01-07T08:44:27;5.81;;5.81;;;;;;;
82310;SPS30;72015;51.330;12.316;2024-01-07T08:48:51;5.81;;5.81;;;;;;;
82310;SPS30;72015;51.330;12.316;2024-01-07T08:53:15;6.54;;6.26;;;;;;;
82310;SPS30;72015;51.330;12.316;2024-01-07T08:57:40;6.54;;6.26;;;;;;;
82310;SPS30;72015;51.330;12.316;2024-01-07T09:02:03;6.54;;6.26;;;;;;;
82310;SPS30;72015;51.330;12.316;2024-01-07T09:06:27;6.34;;6.02;;;;;;;
82310;SPS30;72015;51.330;12.316;2024-01-07T09:10:51;6.34;;6.02;;;;;;;
82310;SPS30;72015;51.330;12.316;2024-01-07T09:15:17;4.95;;4.95;;;;;;;
82310;SPS30;72015;51.330;12.316;2024-01-07T09:19:39;4.95;;4.95;;;;;;;
82310;SPS30;72015;51.330;12.316;2024-01-07T09:24:04;4.99;;4.99;;;;;;;
82310;SPS30;72015;51.330;12.316;2024-01-07T09:28:27;4.99;;4.99;;;;;;;
82310;SPS30;72015;51.330;12.316;2024-01-07T09:32:51;6.86;;6.48;;;;;;;
82310;SPS30;72015;51.330;12.316;2024-01-07T09:37:16;6.86;;6.48;;;;;;;
82310;SPS30;72015;51.330;12.316;2024-01-07T09:41:39;6.86;;6.48;;;;;;;
82310;SPS30;72015;51.330;12.316;2024-01-07T09:46:03;3.97;;3.97;;;;;;;
82310;SPS30;72015;51.330;12.316;2024-01-07T09:50:27;3.97;;3.97;;;;;;;
82310;SPS30;72015;51.330;12.316;2024-01-07T09:54:56;6.16;;5.57;;;;;;;
82310;SPS30;72015;51.330;12.316;2024-01-07T09:59:16;6.16;;5.57;;;;;;;
82310;SPS30;72015;51.330;12.316;2024-01-07T10:03:39;7.23;;5.95;;;;;;;
82310;SPS30;72015;51.330;12.316;2024-01-07T10:08:04;7.23;;5.95;;;;;;;
82310;SPS30;72015;51.330;12.316;2024-01-07T10:12:27;4.36;;4.14;;;;;;;
82310;SPS30;72015;51.330;12.316;2024-01-07T10:16:52;4.36;;4.14;;;;;;;
82310;SPS30;72015;51.330;12.316;2024-01-07T10:21:15;4.36;;4.14;;;;;;;
82310;SPS30;72015;51.330;12.316;2024-01-07T10:25:39;3.56;;3.56;;;;;;;
82310;SPS30;72015;51.330;12.316;2024-01-07T10:30:04;3.56;;3.56;;;;;;;
82310;SPS30;72015;51.330;12.316;2024-01-07T10:34:28;3.06;;3.06;;;;;;;
82310;SPS30;72015;51.330;12.316;2024-01-07T10:38:52;3.06;;3.06;;;;;;;
82310;SPS30;72015;51.330;12.316;2024-01-07T10:43:15;3.30;;3.30;;;;;;;
82310;SPS30;72015;51.330;12.316;2024-01-07T10:47:39;3.30;;3.30;;;;;;;
82310;SPS30;72015;51.330;12.316;2024-01-07T10:52:07;3.30;;3.30;;;;;;;
82310;SPS30;72015;51.330;12.316;2024-01-07T11:00:51;2.72;;2.72;;;;;;;
82310;SPS30;72015;51.330;12.316;2024-01-07T11:05:27;3.99;;3.59;;;;;;;
82310;SPS30;72015;51.330;12.316;2024-01-07T11:09:42;3.99;;3.59;;;;;;;
82310;SPS30;72015;51.330;12.316;2024-01-07T11:14:03;3.26;;3.26;;;;;;;
82310;SPS30;72015;51.330;12.316;2024-01-07T11:18:27;3.26;;3.26;;;;;;;
82310;SPS30;72015;51.330;12.316;2024-01-07T11:22:51;2.91;;2.91;;;;;;;
82310;SPS30;72015;51.330;12.316;2024-01-07T11:27:16;2.91;;2.91;;;;;;;
82310;SPS30;72015;51.330;12.316;2024-01-07T11:31:43;2.91;;2.91;;;;;;;
82310;SPS30;72015;51.330;12.316;2024-01-07T11:36:04;2.76;;2.76;;;;;;;
82310;SPS30;72015;51.330;12.316;2024-01-07T11:40:28;2.76;;2.76;;;;;;;
82310;SPS30;72015;51.330;12.316;2024-01-07T11:44:52;4.63;;3.85;;;;;;;
82310;SPS30;72015;51.330;12.316;2024-01-07T11:49:16;4.63;;3.85;;;;;;;
82310;SPS30;72015;51.330;12.316;2024-01-07T11:53:39;4.04;;3.67;;;;;;;
82310;SPS30;72015;51.330;12.316;2024-01-07T11:58:04;4.04;;3.67;;;;;;;
82310;SPS30;72015;51.330;12.316;2024-01-07T12:02:27;2.01;;2.01;;;;;;;
82310;SPS30;72015;51.330;12.316;2024-01-07T12:06:51;2.01;;2.01;;;;;;;
82310;SPS30;72015;51.330;12.316;2024-01-07T12:11:16;2.01;;2.01;;;;;;;
82310;SPS30;72015;51.330;12.316;2024-01-07T12:15:39;3.31;;3.31;;;;;;;
82310;SPS30;72015;51.330;12.316;2024-01-07T12:20:04;3.31;;3.31;;;;;;;
82310;SPS30;72015;51.330;12.316;2024-01-07T12:24:28;3.26;;3.10;;;;;;;
82310;SPS30;72015;51.330;12.316;2024-01-07T12:28:52;3.26;;3.10;;;;;;;
82310;SPS30;72015;51.330;12.316;2024-01-07T12:33:17;2.75;;2.75;;;;;;;
82310;SPS30;72015;51.330;12.316;2024-01-07T12:37:39;2.75;;2.75;;;;;;;
82310;SPS30;72015;51.330;12.316;2024-01-07T12:42:04;2.75;;2.75;;;;;;;
82310;SPS30;72015;51.330;12.316;2024-01-07T12:46:27;4.38;;3.96;;;;;;;
82310;SPS30;72015;51.330;12.316;2024-01-07T12:50:51;4.38;;3.96;;;;;;;
82310;SPS30;72015;51.330;12.316;2024-01-07T12:55:16;4.55;;4.13;;;;;;;
82310;SPS30;72015;51.330;12.316;2024-01-07T12:59:39;4.55;;4.13;;;;;;;
82310;SPS30;72015;51.330;12.316;2024-01-07T13:04:04;2.42;;2.42;;;;;;;
82310;SPS30;72015;51.330;12.316;2024-01-07T13:08:27;2.42;;2.42;;;;;;;
82310;SPS30;72015;51.330;12.316;2024-01-07T13:12:51;5.17;;4.61;;;;;;;
82310;SPS30;72015;51.330;12.316;2024-01-07T13:17:15;5.17;;4.61;;;;;;;
82310;SPS30;72015;51.330;12.316;2024-01-07T13:21:39;5.17;;4.61;;;;;;;
82310;SPS30;72015;51.330;12.316;2024-01-07T13:26:03;2.46;;2.46;;;;;;;
82310;SPS30;72015;51.330;12.316;2024-01-07T13:30:27;2.46;;2.46;;;;;;;
82310;SPS30;72015;51.330;12.316;2024-01-07T13:34:51;3.67;;3.51;;;;;;;
82310;SPS30;72015;51.330;12.316;2024-01-07T13:39:15;3.67;;3.51;;;;;;;
82310;SPS30;72015;51.330;12.316;2024-01-07T13:43:39;3.78;;3.78;;;;;;;
82310;SPS30;72015;51.330;12.316;2024-01-07T13:48:04;3.78;;3.78;;;;;;;
82310;SPS30;72015;51.330;12.316;2024-01-07T13:52:27;3.81;;3.81;;;;;;;
82310;SPS30;72015;51.330;12.316;2024-01-07T13:56:51;3.81;;3.81;;;;;;;
82310;SPS30;72015;51.330;12.316;2024-01-07T14:01:15;3.81;;3.81;;;;;;;
82310;SPS30;72015;51.330;12.316;2024-01-07T14:05:39;3.84;;3.45;;;;;;;
82310;SPS30;72015;51.330;12.316;2024-01-07T14:10:04;3.84;;3.45;;;;;;;
82310;SPS30;72015;51.330;12.316;2024-01-07T14:14:27;3.47;;3.19;;;;;;;
82310;SPS30;72015;51.330;12.316;2024-01-07T14:18:51;3.47;;3.19;;;;;;;
82310;SPS30;72015;51.330;12.316;2024-01-07T14:23:15;3.56;;3.37;;;;;;;
82310;SPS30;72015;51.330;12.316;2024-01-07T14:27:39;3.56;;3.37;;;;;;;
82310;SPS30;72015;51.330;12.316;2024-01-07T14:32:04;3.56;;3.37;;;;;;;
82310;SPS30;72015;51.330;12.316;2024-01-07T14:36:27;4.25;;4.25;;;;;;;
82310;SPS30;72015;51.330;12.316;2024-01-07T14:40:51;4.25;;4.25;;;;;;;
82310;SPS30;72015;51.330;12.316;2024-01-07T14:45:15;4.12;;4.12;;;;;;;
82310;SPS30;72015;51.330;12.316;2024-01-07T14:49:39;4.12;;4.12;;;;;;;
82310;SPS30;72015;51.330;12.316;2024-01-07T14:54:04;4.03;;3.56;;;;;;;
82310;SPS30;72015;51.330;12.316;2024-01-07T14:58:27;4.03;;3.56;;;;;;;
82310;SPS30;72015;51.330;12.316;2024-01-07T15:02:51;3.82;;3.82;;;;;;;
82310;SPS30;72015;51.330;12.316;2024-01-07T15:07:15;3.82;;3.82;;;;;;;
82310;SPS30;72015;51.330;12.316;2024-01-07T15:11:39;3.82;;3.82;;;;;;;
82310;SPS30;72015;51.330;12.316;2024-01-07T15:16:04;4.72;;3.95;;;;;;;
82310;SPS30;72015;51.330;12.316;2024-01-07T15:20:27;4.72;;3.95;;;;;;;
82310;SPS30;72015;51.330;12.316;2024-01-07T15:24:51;4.42;;4.42;;;;;;;
82310;SPS30;72015;51.330;12.316;2024-01-07T15:29:15;4.42;;4.42;;;;;;;
82310;SPS30;72015;51.330;12.316;2024-01-07T15:33:39;6.90;;6.17;;;;;;;
82310;SPS30;72015;51.330;12.316;2024-01-07T15:38:03;6.90;;6.17;;;;;;;
82310;SPS30;72015;51.330;12.316;2024-01-07T15:42:27;6.15;;5.90;;;;;;;
82310;SPS30;72015;51.330;12.316;2024-01-07T15:46:51;6.15;;5.90;;;;;;;
82310;SPS30;72015;51.330;12.316;2024-01-07T15:51:15;6.15;;5.90;;;;;;;
82310;SPS30;72015;51.330;12.316;2024-01-07T15:55:39;6.73;;6.37;;;;;;;
82310;SPS30;72015;51.330;12.316;2024-01-07T16:00:04;6.73;;6.37;;;;;;;
82310;SPS30;72015;51.330;12.316;2024-01-07T16:04:27;6.25;;6.21;;;;;;;
82310;SPS30;72015;51.330;12.316;2024-01-07T16:08:52;6.25;;6.21;;;;;;;
82310;SPS30;72015;51.330;12.316;2024-01-07T16:13:15;13.19;;13.19;;;;;;;
82310;SPS30;72015;51.330;12.316;2024-01-07T16:17:39;13.19;;13.19;;;;;;;
82310;SPS30;72015;51.330;12.316;2024-01-07T16:22:03;13.19;;13.19;;;;;;;
82310;SPS30;72015;51.330;12.316;2024-01-07T16:26:27;16.81;;14.14;;;;;;;
82310;SPS30;72015;51.330;12.316;2024-01-07T16:30:51;16.81;;14.14;;;;;;;
82310;SPS30;72015;51.330;12.316;2024-01-07T16:35:15;7.95;;7.58;;;;;;;
82310;SPS30;72015;51.330;12.316;2024-01-07T16:39:39;7.95;;7.58;;;;;;;
82310;SPS30;72015;51.330;12.316;2024-01-07T16:44:03;9.02;;8.76;;;;;;;
82310;SPS30;72015;51.330;12.316;2024-01-07T16:48:27;9.02;;8.76;;;;;;;
82310;SPS30;72015;51.330;12.316;2024-01-07T16:52:51;11.42;;9.92;;;;;;;
82310;SPS30;72015;51.330;12.316;2024-01-07T16:57:15;11.42;;9.92;;;;;;;
82310;SPS30;72015;51.330;12.316;2024-01-07T17:01:39;11.42;;9.92;;;;;;;
82310;SPS30;72015;51.330;12.316;2024-01-07T17:06:03;9.62;;9.05;;;;;;;
82310;SPS30;72015;51.330;12.316;2024-01-07T17:10:27;9.62;;9.05;;;;;;;
82310;SPS30;72015;51.330;12.316;2024-01-07T17:14:51;7.41;;7.41;;;;;;;
82310;SPS30;72015;51.330;12.316;2024-01-07T17:19:15;7.41;;7.41;;;;;;;
82310;SPS30;72015;51.330;12.316;2024-01-07T17:23:39;9.73;;9.20;;;;;;;
82310;SPS30;72015;51.330;12.316;2024-01-07T17:28:03;9.73;;9.20;;;;;;;
82310;SPS30;72015;51.330;12.316;2024-01-07T17:32:27;9.23;;9.23;;;;;;;
82310;SPS30;72015;51.330;12.316;2024-01-07T17:36:51;9.23;;9.23;;;;;;;
82310;SPS30;72015;51.330;12.316;2024-01-07T17:41:15;9.23;;9.23;;;;;;;
82310;SPS30;72015;51.330;12.316;2024-01-07T17:45:40;9.27;;9.20;;;;;;;
82310;SPS30;72015;51.330;12.316;2024-01-07T17:50:04;9.27;;9.20;;;;;;;
82310;SPS30;72015;51.330;12.316;2024-01-07T17:54:27;10.26;;9.60;;;;;;;
82310;SPS30;72015;51.330;12.316;2024-01-07T17:58:51;10.26;;9.60;;;;;;;
82310;SPS30;72015;51.330;12.316;2024-01-07T18:03:15;14.67;;14.67;;;;;;;
82310;SPS30;72015;51.330;12.316;2024-01-07T18:07:39;14.67;;14.67;;;;;;;
82310;SPS30;72015;51.330;12.316;2024-01-07T18:12:03;14.67;;14.67;;;;;;;
82310;SPS30;72015;51.330;12.316;2024-01-07T18:16:27;6.64;;6.64;;;;;;;
82310;SPS30;72015;51.330;12.316;2024-01-07T18:20:51;6.64;;6.64;;;;;;;
82310;SPS30;72015;51.330;12.316;2024-01-07T18:25:15;8.54;;8.15;;;;;;;
82310;SPS30;72015;51.330;12.316;2024-01-07T18:29:39;8.54;;8.15;;;;;;;
82310;SPS30;72015;51.330;12.316;2024-01-07T18:34:03;6.06;;6.06;;;;;;;
82310;SPS30;72015;51.330;12.316;2024-01-07T18:38:27;6.06;;6.06;;;;;;;
82310;SPS30;72015;51.330;12.316;2024-01-07T18:42:51;7.46;;7.17;;;;;;;
82310;SPS30;72015;51.330;12.316;2024-01-07T18:47:15;7.46;;7.17;;;;;;;
82310;SPS30;72015;51.330;12.316;2024-01-07T18:51:42;7.46;;7.17;;;;;;;
82310;SPS30;72015;51.330;12.316;2024-01-07T18:56:06;6.96;;6.58;;;;;;;
82310;SPS30;72015;51.330;12.316;2024-01-07T19:00:27;6.96;;6.58;;;;;;;
82310;SPS30;72015;51.330;12.316;2024-01-07T19:04:51;6.23;;6.07;;;;;;;
82310;SPS30;72015;51.330;12.316;2024-01-07T19:09:15;6.23;;6.07;;;;;;;
82310;SPS30;72015;51.330;12.316;2024-01-07T19:13:39;7.21;;6.83;;;;;;;
82310;SPS30;72015;51.330;12.316;2024-01-07T19:18:03;7.21;;6.83;;;;;;;
82310;SPS30;72015;51.330;12.316;2024-01-07T19:22:27;5.17;;5.17;;;;;;;
82310;SPS30;72015;51.330;12.316;2024-01-07T19:26:51;5.17;;5.17;;;;;;;
82310;SPS30;72015;51.330;12.316;2024-01-07T19:31:15;5.17;;5.17;;;;;;;
82310;SPS30;72015;51.330;12.316;2024-01-07T19:35:39;7.38;;6.53;;;;;;;
82310;SPS30;72015;51.330;12.316;2024-01-07T19:40:03;7.38;;6.53;;;;;;;
82310;SPS30;72015;51.330;12.316;2024-01-07T19:44:27;5.17;;5.17;;;;;;;
82310;SPS30;72015;51.330;12.316;2024-01-07T19:48:51;5.17;;5.17;;;;;;;
82310;SPS30;72015;51.330;12.316;2024-01-07T19:53:15;5.81;;5.81;;;;;;;
82310;SPS30;72015;51.330;12.316;2024-01-07T19:57:39;5.81;;5.81;;;;;;;
82310;SPS30;72015;51.330;12.316;2024-01-07T20:02:03;5.81;;5.81;;;;;;;
82310;SPS30;72015;51.330;12.316;2024-01-07T20:06:27;8.91;;8.07;;;;;;;
82310;SPS30;72015;51.330;12.316;2024-01-07T20:10:51;8.91;;8.07;;;;;;;
82310;SPS30;72015;51.330;12.316;2024-01-07T20:15:15;11.30;;9.57;;;;;;;
82310;SPS30;72015;51.330;12.316;2024-01-07T20:19:39;11.30;;9.57;;;;;;;
82310;SPS30;72015;51.330;12.316;2024-01-07T20:24:03;7.02;;6.93;;;;;;;
82310;SPS30;72015;51.330;12.316;2024-01-07T20:28:27;7.02;;6.93;;;;;;;
82310;SPS30;72015;51.330;12.316;2024-01-07T20:32:51;7.22;;7.11;;;;;;;
82310;SPS30;72015;51.330;12.316;2024-01-07T20:37:15;7.22;;7.11;;;;;;;
82310;SPS30;72015;51.330;12.316;2024-01-07T20:41:39;7.22;;7.11;;;;;;;
82310;SPS30;72015;51.330;12.316;2024-01-07T20:46:06;9.11;;8.52;;;;;;;
82310;SPS30;72015;51.330;12.316;2024-01-07T20:50:27;9.11;;8.52;;;;;;;
82310;SPS30;72015;51.330;12.316;2024-01-07T20:54:51;7.31;;6.89;;;;;;;
82310;SPS30;72015;51.330;12.316;2024-01-07T20:59:15;7.31;;6.89;;;;;;;
82310;SPS30;72015;51.330;12.316;2024-01-07T21:03:39;7.60;;7.05;;;;;;;
82310;SPS30;72015;51.330;12.316;2024-01-07T21:08:03;7.60;;7.05;;;;;;;
82310;SPS30;72015;51.330;12.316;2024-01-07T21:12:27;6.78;;6.69;;;;;;;
82310;SPS30;72015;51.330;12.316;2024-01-07T21:16:51;6.78;;6.69;;;;;;;
82310;SPS30;72015;51.330;12.316;2024-01-07T21:21:15;6.78;;6.69;;;;;;;
82310;SPS30;72015;51.330;12.316;2024-01-07T21:25:39;7.81;;7.76;;;;;;;
82310;SPS30;72015;51.330;12.316;2024-01-07T21:30:03;7.81;;7.76;;;;;;;
82310;SPS30;72015;51.330;12.316;2024-01-07T21:34:27;9.36;;8.59;;;;;;;
82310;SPS30;72015;51.330;12.316;2024-01-07T21:38:51;9.36;;8.59;;;;;;;
82310;SPS30;72015;51.330;12.316;2024-01-07T21:43:15;6.93;;6.93;;;;;;;
82310;SPS30;72015;51.330;12.316;2024-01-07T21:47:39;6.93;;6.93;;;;;;;
82310;SPS30;72015;51.330;12.316;2024-01-07T21:52:04;6.93;;6.93;;;;;;;
82310;SPS30;72015;51.330;12.316;2024-01-07T21:56:27;7.18;;6.92;;;;;;;
82310;SPS30;72015;51.330;12.316;2024-01-07T22:00:51;7.18;;6.92;;;;;;;
82310;SPS30;72015;51.330;12.316;2024-01-07T22:05:15;6.53;;6.53;;;;;;;
82310;SPS30;72015;51.330;12.316;2024-01-07T22:09:39;6.53;;6.53;;;;;;;
82310;SPS30;72015;51.330;12.316;2024-01-07T22:14:03;6.20;;6.20;;;;;;;
82310;SPS30;72015;51.330;12.316;2024-01-07T22:18:27;6.20;;6.20;;;;;;;
82310;SPS30;72015;51.330;12.316;2024-01-07T22:22:51;9.06;;8.28;;;;;;;
82310;SPS30;72015;51.330;12.316;2024-01-07T22:27:15;9.06;;8.28;;;;;;;
82310;SPS30;72015;51.330;12.316;2024-01-07T22:31:39;9.06;;8.28;;;;;;;
82310;SPS30;72015;51.330;12.316;2024-01-07T22:36:03;6.34;;6.34;;;;;;;
82310;SPS30;72015;51.330;12.316;2024-01-07T22:40:27;6.34;;6.34;;;;;;;
82310;SPS30;72015;51.330;12.316;2024-01-07T22:44:51;7.85;;7.31;;;;;;;
82310;SPS30;72015;51.330;12.316;2024-01-07T22:49:15;7.85;;7.31;;;;;;;
82310;SPS30;72015;51.330;12.316;2024-01-07T22:53:39;8.53;;7.95;;;;;;;
82310;SPS30;72015;51.330;12.316;2024-01-07T22:58:03;8.53;;7.95;;;;;;;
82310;SPS30;72015;51.330;12.316;2024-01-07T23:02:27;6.76;;6.76;;;;;;;
82310;SPS30;72015;51.330;12.316;2024-01-07T23:06:51;6.76;;6.76;;;;;;;
82310;SPS30;72015;51.330;12.316;2024-01-07T23:11:15;6.76;;6.76;;;;;;;
82310;SPS30;72015;51.330;12.316;2024-01-07T23:15:39;6.89;;6.89;;;;;;;
82310;SPS30;72015;51.330;12.316;2024-01-07T23:20:04;6.89;;6.89;;;;;;;
82310;SPS30;72015;51.330;12.316;2024-01-07T23:24:27;8.02;;7.55;;;;;;;
82310;SPS30;72015;51.330;12.316;2024-01-07T23:28:51;8.02;;7.55;;;;;;;
82310;SPS30;72015;51.330;12.316;2024-01-07T23:33:15;5.82;;5.78;;;;;;;
82310;SPS30;72015;51.330;12.316;2024-01-07T23:37:39;5.82;;5.78;;;;;;;
82310;SPS30;72015;51.330;12.316;2024-01-07T23:42:03;5.82;;5.78;;;;;;;
82310;SPS30;72015;51.330;12.316;2024-01-07T23:46:27;7.86;;7.03;;;;;;;
82310;SPS30;72015;51.330;12.316;2024-01-07T23:50:51;7.86;;7.03;;;;;;;
82310;SPS30;72015;51.330;12.316;2024-01-07T23:55:15;5.67;;5.50;;;;;;;
82310;SPS30;72015;51.330;12.316;2024-01-07T23:59:39;5.67;;5.50;;;;;;;
